Time;durP1;ratioP1;P1;durP2;ratioP2;P2;SDS_P1;SDS_P2;PMS_P1;PMS_P2;Temp;Humidity;BMP_temperature;BMP_pressure;BME280_temperature;BME280_humidity;BME280_pressure;Samples;Min_cycle;Max_cycle;Signal;HPM_P1;HPM_P2
2023/10/10 00:01:04;;;;;;;10.87;8.43;;;17.10;99.90;;;;;;5041661;28;20584;-73
2023/10/10 00:03:31;;;;;;;9.40;6.70;;;17.10;99.90;;;;;;5040970;28;21025;-74
2023/10/10 00:06:06;;;;;;;8.20;7.10;;;17.10;99.90;;;;;;5044034;28;20753;-74
2023/10/10 00:08:36;;;;;;;10.67;6.57;;;17.10;99.90;;;;;;5049305;28;20595;-74
2023/10/10 00:11:14;;;;;;;9.03;6.90;;;17.00;99.90;;;;;;5045028;28;20584;-74
2023/10/10 00:13:52;;;;;;;9.13;6.90;;;17.00;99.90;;;;;;5048491;28;20619;-74
2023/10/10 00:16:41;;;;;;;13.33;7.87;;;17.00;99.90;;;;;;5030846;28;20734;-74
2023/10/10 00:19:29;;;;;;;10.70;6.60;;;16.90;99.90;;;;;;5048422;28;20611;-74
2023/10/10 00:21:55;;;;;;;12.10;7.67;;;16.90;99.90;;;;;;5047636;28;20584;-74
2023/10/10 00:24:30;;;;;;;10.33;6.83;;;16.90;99.90;;;;;;5049932;28;20953;-74
2023/10/10 00:27:23;;;;;;;9.50;6.60;;;16.90;99.90;;;;;;5043881;28;20583;-74
2023/10/10 00:29:46;;;;;;;10.70;7.83;;;16.90;99.90;;;;;;5044149;28;20591;-74
2023/10/10 00:32:17;;;;;;;9.90;7.40;;;16.80;99.90;;;;;;5043313;28;21176;-74
2023/10/10 00:34:49;;;;;;;12.17;8.00;;;16.80;99.90;;;;;;5046679;28;20227;-74
2023/10/10 00:37:17;;;;;;;9.30;7.40;;;16.80;99.90;;;;;;5013966;28;20628;-74
2023/10/10 00:39:52;;;;;;;8.97;6.57;;;16.80;99.90;;;;;;5047591;28;20612;-74
2023/10/10 00:42:36;;;;;;;9.07;6.87;;;16.80;99.90;;;;;;5040665;28;20583;-74
2023/10/10 00:45:09;;;;;;;10.70;7.40;;;16.80;99.90;;;;;;5043048;28;20637;-74
2023/10/10 00:47:44;;;;;;;12.70;7.80;;;16.70;99.90;;;;;;5045671;28;20572;-74
2023/10/10 00:50:15;;;;;;;10.37;7.47;;;16.70;99.90;;;;;;5041455;28;20686;-74
2023/10/10 00:52:48;;;;;;;9.20;7.70;;;16.70;99.90;;;;;;5044104;28;20661;-74
2023/10/10 00:55:16;;;;;;;11.30;7.87;;;16.70;99.90;;;;;;5040450;28;20636;-73
2023/10/10 00:57:43;;;;;;;10.13;7.23;;;16.70;99.90;;;;;;5044208;28;20596;-73
2023/10/10 01:00:15;;;;;;;8.93;6.47;;;16.60;99.90;;;;;;5039239;28;20645;-73
2023/10/10 01:02:42;;;;;;;12.80;7.90;;;16.60;99.90;;;;;;5039902;28;20619;-74
2023/10/10 01:05:12;;;;;;;9.97;8.00;;;16.60;99.90;;;;;;5040460;28;20604;-74
2023/10/10 01:07:47;;;;;;;9.80;7.30;;;16.60;99.90;;;;;;5043810;28;21227;-74
2023/10/10 01:10:16;;;;;;;12.70;7.43;;;16.60;99.90;;;;;;5042070;28;20957;-74
2023/10/10 01:12:44;;;;;;;10.20;7.63;;;16.60;99.90;;;;;;5031558;28;20634;-74
2023/10/10 01:15:29;;;;;;;10.33;6.80;;;16.50;99.90;;;;;;5015353;28;20949;-74
2023/10/10 01:17:56;;;;;;;15.60;7.87;;;16.60;99.90;;;;;;5037282;28;20588;-74
2023/10/10 01:20:36;;;;;;;13.20;6.97;;;16.60;99.90;;;;;;5036094;28;20600;-76
2023/10/10 01:23:03;;;;;;;12.40;7.37;;;16.60;99.90;;;;;;5044370;28;20638;-75
2023/10/10 01:25:41;;;;;;;10.63;6.90;;;16.60;99.90;;;;;;5056442;28;20597;-75
2023/10/10 01:33:23;;;;;;;10.20;6.87;;;16.60;99.90;;;;;;5031418;28;21078;-74
2023/10/10 01:35:55;;;;;;;9.63;6.80;;;16.60;99.90;;;;;;5041856;28;21248;-75
2023/10/10 01:38:38;;;;;;;9.53;6.80;;;16.50;99.90;;;;;;5045488;28;20579;-75
2023/10/10 01:41:05;;;;;;;8.83;6.83;;;16.50;99.90;;;;;;5061658;28;20639;-75
2023/10/10 01:43:33;;;;;;;9.00;7.80;;;16.50;99.90;;;;;;5039423;28;20618;-74
2023/10/10 01:46:09;;;;;;;11.73;7.30;;;16.50;99.90;;;;;;5036480;28;20939;-74
2023/10/10 01:48:43;;;;;;;15.27;8.10;;;16.50;99.90;;;;;;5042387;28;20588;-74
2023/10/10 01:51:15;;;;;;;9.20;6.53;;;16.40;99.90;;;;;;5040117;28;20589;-75
2023/10/10 01:53:41;;;;;;;10.80;7.40;;;16.40;99.90;;;;;;5046828;28;20662;-74
2023/10/10 01:56:11;;;;;;;11.10;8.57;;;16.40;99.90;;;;;;5023793;28;20631;-74
2023/10/10 01:58:38;;;;;;;11.00;7.30;;;16.40;99.90;;;;;;5031410;28;20618;-75
2023/10/10 02:01:16;;;;;;;10.77;7.70;;;16.40;99.90;;;;;;5042985;28;20602;-75
2023/10/10 02:03:42;;;;;;;8.67;6.63;;;16.40;99.90;;;;;;5042215;28;21185;-75
2023/10/10 02:06:13;;;;;;;11.57;7.57;;;16.40;99.90;;;;;;5062033;28;22135;-75
2023/10/10 02:08:38;;;;;;;9.23;6.97;;;16.40;99.90;;;;;;5026144;28;20657;-75
2023/10/10 02:11:06;;;;;;;15.33;7.70;;;16.30;99.90;;;;;;5023030;28;20602;-74
2023/10/10 02:13:33;;;;;;;11.97;7.07;;;16.30;99.90;;;;;;5026214;28;20615;-75
2023/10/10 02:16:04;;;;;;;10.53;7.73;;;16.30;99.90;;;;;;5038885;28;20685;-75
2023/10/10 02:21:17;;;;;;;11.60;7.47;;;16.30;99.90;;;;;;5043733;28;20619;-74
2023/10/10 02:23:46;;;;;;;9.27;7.97;;;16.30;99.90;;;;;;5047247;28;20630;-76
2023/10/10 02:26:35;;;;;;;13.93;8.17;;;16.30;99.90;;;;;;5035308;28;20591;-75
2023/10/10 02:32:12;;;;;;;11.07;7.60;;;16.30;99.90;;;;;;4974686;28;20597;-75
2023/10/10 02:34:42;;;;;;;9.30;6.90;;;16.30;99.90;;;;;;5036313;28;21180;-75
2023/10/10 02:37:41;;;;;;;13.00;7.77;;;16.20;99.90;;;;;;5045282;28;20646;-75
2023/10/10 02:40:14;;;;;;;9.27;6.50;;;16.20;99.90;;;;;;5031245;28;20583;-75
2023/10/10 02:42:49;;;;;;;9.50;7.67;;;16.20;99.90;;;;;;5030109;28;20620;-75
2023/10/10 02:45:16;;;;;;;12.67;7.83;;;16.20;99.90;;;;;;5033948;28;20595;-75
2023/10/10 02:47:46;;;;;;;10.00;7.57;;;16.20;99.90;;;;;;5049062;28;20595;-75
2023/10/10 02:50:39;;;;;;;12.07;7.57;;;16.10;99.90;;;;;;5047476;28;20591;-75
2023/10/10 02:53:06;;;;;;;12.13;6.40;;;16.10;99.90;;;;;;5027406;28;20616;-75
2023/10/10 02:55:33;;;;;;;10.63;8.30;;;16.10;99.90;;;;;;5047222;28;20751;-75
2023/10/10 02:58:00;;;;;;;8.00;6.20;;;16.10;99.90;;;;;;5046827;28;20685;-75
2023/10/10 03:02:54;;;;;;;10.30;7.40;;;16.10;99.90;;;;;;5047249;28;20611;-75
2023/10/10 03:05:46;;;;;;;13.37;7.47;;;16.10;99.90;;;;;;5031568;28;20181;-75
2023/10/10 03:08:18;;;;;;;8.80;7.47;;;16.10;99.90;;;;;;5027672;28;21017;-75
2023/10/10 03:10:53;;;;;;;12.43;7.50;;;16.10;99.90;;;;;;5032813;28;20611;-75
2023/10/10 03:13:47;;;;;;;8.33;5.80;;;16.10;99.90;;;;;;5042323;28;20641;-75
2023/10/10 03:29:21;;;;;;;8.40;5.90;;;16.00;99.90;;;;;;5047378;28;20652;-75
2023/10/10 03:32:18;;;;;;;8.77;6.20;;;16.00;99.90;;;;;;5045524;28;20596;-75
2023/10/10 03:34:44;;;;;;;7.60;5.37;;;16.00;99.90;;;;;;5030597;28;21173;-75
2023/10/10 03:39:57;;;;;;;8.60;5.17;;;16.00;99.90;;;;;;5033517;28;21187;-76
2023/10/10 05:23:58;;;;;;;8.10;5.20;;;15.60;99.90;;;;;;5040812;28;20619;-75
2023/10/10 05:26:24;;;;;;;7.10;6.07;;;15.60;99.90;;;;;;5047689;28;20594;-75
2023/10/10 05:28:50;;;;;;;10.50;6.97;;;15.60;99.90;;;;;;5051280;28;20587;-75
2023/10/10 05:31:21;;;;;;;7.93;6.37;;;15.50;99.90;;;;;;5037997;28;20182;-76
2023/10/10 05:33:50;;;;;;;10.60;5.03;;;15.60;99.90;;;;;;5046445;28;20200;-75
2023/10/10 05:36:18;;;;;;;10.53;6.00;;;15.50;99.90;;;;;;5043656;28;20742;-75
2023/10/10 05:38:45;;;;;;;6.90;5.40;;;15.50;99.90;;;;;;5048246;28;20571;-76
2023/10/10 05:43:40;;;;;;;9.00;6.40;;;15.50;99.90;;;;;;5036338;28;20718;-79
2023/10/10 05:46:06;;;;;;;7.67;5.60;;;15.50;99.90;;;;;;5003381;28;21145;-80
2023/10/10 05:48:33;;;;;;;9.00;6.77;;;15.50;99.90;;;;;;5019895;28;20659;-79
2023/10/10 05:51:03;;;;;;;9.20;6.57;;;15.50;99.90;;;;;;5019033;28;20592;-79
2023/10/10 05:53:33;;;;;;;8.90;5.93;;;15.50;99.90;;;;;;5018065;28;20608;-79
2023/10/10 05:55:59;;;;;;;8.90;5.67;;;15.60;99.90;;;;;;5004532;28;20726;-79
2023/10/10 05:58:26;;;;;;;12.83;6.80;;;15.60;99.90;;;;;;5020112;28;20695;-79
2023/10/10 06:00:53;;;;;;;8.90;6.83;;;15.50;99.90;;;;;;5038927;28;20623;-79
2023/10/10 06:03:25;;;;;;;9.53;6.60;;;15.50;99.90;;;;;;5039437;28;20648;-81
2023/10/10 06:05:53;;;;;;;9.47;6.50;;;15.50;99.90;;;;;;5021129;28;20600;-79
2023/10/10 06:08:20;;;;;;;9.00;6.30;;;15.60;99.90;;;;;;5035760;28;20969;-79
2023/10/10 06:10:48;;;;;;;10.30;7.07;;;15.60;99.90;;;;;;5033905;28;20965;-79
2023/10/10 06:13:13;;;;;;;12.23;6.53;;;15.70;99.90;;;;;;5015371;28;20652;-79
2023/10/10 06:15:43;;;;;;;11.07;6.53;;;15.70;99.90;;;;;;5032656;28;20651;-79
2023/10/10 06:18:11;;;;;;;10.67;6.40;;;15.70;99.90;;;;;;5019215;28;20185;-79
2023/10/10 06:20:41;;;;;;;8.90;7.17;;;15.80;99.90;;;;;;5036760;28;20603;-79
2023/10/10 06:23:08;;;;;;;7.23;5.20;;;15.80;99.90;;;;;;5031858;28;20612;-79
2023/10/10 06:25:36;;;;;;;10.50;7.57;;;15.90;99.90;;;;;;4997432;28;21349;-79
2023/10/10 06:28:05;;;;;;;8.37;5.60;;;15.90;99.90;;;;;;5016853;28;20595;-79
2023/10/10 06:30:36;;;;;;;11.27;7.43;;;15.90;99.90;;;;;;5018674;28;20684;-79
2023/10/10 06:33:09;;;;;;;11.57;5.70;;;16.00;99.90;;;;;;5034979;28;20654;-79
2023/10/10 06:35:37;;;;;;;11.00;6.10;;;16.00;99.90;;;;;;5016931;28;20660;-79
2023/10/10 06:38:10;;;;;;;7.30;5.83;;;16.10;99.90;;;;;;5017657;28;20680;-79
2023/10/10 06:40:53;;;;;;;9.03;6.60;;;16.10;99.90;;;;;;5034846;28;20593;-79
2023/10/10 06:43:21;;;;;;;8.60;5.97;;;16.20;99.90;;;;;;5016522;28;20751;-79
2023/10/10 06:45:56;;;;;;;11.17;6.90;;;16.30;99.90;;;;;;5034865;28;20603;-79
2023/10/10 06:48:22;;;;;;;11.60;6.77;;;16.40;99.90;;;;;;5035425;28;20588;-79
2023/10/10 06:50:49;;;;;;;11.10;5.50;;;16.50;99.90;;;;;;5019685;28;20595;-79
2023/10/10 06:53:35;;;;;;;10.57;6.23;;;16.60;99.90;;;;;;5018237;28;20651;-79
2023/10/10 06:56:17;;;;;;;8.00;5.73;;;16.60;99.90;;;;;;5019648;28;20636;-79
2023/10/10 06:58:44;;;;;;;8.50;6.40;;;16.70;99.90;;;;;;5016840;28;20597;-79
2023/10/10 07:01:11;;;;;;;12.03;7.17;;;16.80;99.90;;;;;;5034543;28;20584;-79
2023/10/10 07:03:41;;;;;;;7.53;5.13;;;16.80;99.90;;;;;;5014595;28;20626;-80
2023/10/10 07:06:10;;;;;;;7.83;5.80;;;16.90;99.90;;;;;;5007871;28;20592;-80
2023/10/10 07:08:35;;;;;;;9.17;5.50;;;16.90;99.90;;;;;;5034462;28;20596;-80
2023/10/10 07:11:02;;;;;;;10.80;5.40;;;17.00;99.90;;;;;;5035859;28;20599;-80
2023/10/10 07:13:30;;;;;;;7.57;5.67;;;17.00;99.90;;;;;;5001124;28;20298;-79
2023/10/10 07:15:56;;;;;;;10.10;5.80;;;17.10;99.90;;;;;;5001068;28;20810;-80
2023/10/10 07:18:22;;;;;;;8.77;5.80;;;17.20;99.90;;;;;;5034710;28;20580;-80
2023/10/10 07:21:17;;;;;;;7.57;5.13;;;17.30;99.90;;;;;;5017589;28;20588;-80
2023/10/10 07:26:30;;;;;;;7.73;5.10;;;17.50;99.90;;;;;;5018993;28;20584;-80
2023/10/10 07:28:57;;;;;;;10.33;6.20;;;17.60;99.90;;;;;;5037712;28;20631;-80
2023/10/10 07:31:24;;;;;;;8.50;5.73;;;17.60;99.90;;;;;;5020065;28;20592;-80
2023/10/10 07:33:55;;;;;;;8.33;5.80;;;17.70;99.90;;;;;;5026724;28;20588;-80
2023/10/10 07:36:25;;;;;;;8.93;6.07;;;17.70;99.90;;;;;;5042492;28;20730;-80
2023/10/10 07:39:31;;;;;;;10.63;6.03;;;17.80;99.90;;;;;;5014206;28;20593;-80
2023/10/10 07:41:45;;;;;;;8.30;5.50;;;17.90;99.90;;;;;;5021475;28;20620;-80
2023/10/10 07:44:16;;;;;;;7.43;5.13;;;18.10;99.90;;;;;;5039162;28;20607;-80
2023/10/10 07:47:10;;;;;;;7.93;5.87;;;18.20;99.90;;;;;;5038545;28;20901;-80
2023/10/10 07:49:28;;;;;;;10.03;6.00;;;18.30;99.90;;;;;;5017531;28;20588;-80
2023/10/10 07:51:54;;;;;;;7.03;5.13;;;18.40;99.90;;;;;;5041569;28;20684;-80
2023/10/10 07:54:30;;;;;;;7.90;6.13;;;18.50;99.90;;;;;;5023947;28;20248;-80
2023/10/10 07:56:56;;;;;;;11.23;5.80;;;18.60;99.90;;;;;;5023960;28;20336;-80
2023/10/10 07:59:22;;;;;;;8.83;4.97;;;18.80;99.90;;;;;;5022010;28;20620;-80
2023/10/10 08:01:50;;;;;;;9.17;5.87;;;19.10;99.90;;;;;;5020943;28;20674;-80
2023/10/10 08:04:16;;;;;;;7.20;5.80;;;19.30;99.90;;;;;;5034552;28;20232;-79
2023/10/10 08:06:44;;;;;;;8.80;6.20;;;19.70;99.90;;;;;;5015963;28;20592;-78
2023/10/10 08:11:46;;;;;;;8.47;4.80;;;20.60;99.90;;;;;;5039593;28;20627;-79
2023/10/10 08:14:13;;;;;;;7.80;5.37;;;21.00;99.90;;;;;;5021974;28;20662;-79
2023/10/10 08:16:41;;;;;;;9.17;5.83;;;21.40;99.90;;;;;;5019697;28;20624;-79
2023/10/10 08:19:08;;;;;;;8.50;4.30;;;21.60;99.90;;;;;;5035365;28;20600;-79
2023/10/10 08:21:38;;;;;;;8.00;5.67;;;21.80;99.90;;;;;;5033800;28;21171;-79
2023/10/10 08:24:08;;;;;;;8.23;4.53;;;22.00;99.90;;;;;;5016760;28;20718;-79
2023/10/10 08:26:44;;;;;;;10.20;6.07;;;22.20;99.90;;;;;;4999939;28;20654;-78
2023/10/10 08:29:11;;;;;;;8.20;5.53;;;22.50;99.90;;;;;;5007145;28;20606;-79
2023/10/10 08:31:45;;;;;;;6.27;4.53;;;22.90;99.90;;;;;;5032802;28;20618;-79
2023/10/10 08:34:11;;;;;;;8.00;4.60;;;23.20;99.90;;;;;;5015224;28;20603;-79
2023/10/10 08:36:37;;;;;;;6.50;4.47;;;23.70;99.90;;;;;;5033028;28;20741;-80
2023/10/10 08:41:42;;;;;;;8.20;4.70;;;24.50;99.90;;;;;;5015016;28;20624;-79
2023/10/10 08:44:14;;;;;;;7.30;4.90;;;24.90;99.90;;;;;;5015305;28;20604;-79
2023/10/10 08:46:43;;;;;;;9.10;4.80;;;25.30;99.90;;;;;;5019003;28;20596;-79
2023/10/10 08:49:09;;;;;;;6.20;4.37;;;25.60;99.90;;;;;;5015484;28;20601;-79
2023/10/10 08:51:36;;;;;;;7.40;4.60;;;25.70;99.90;;;;;;4998659;28;21192;-79
2023/10/10 08:54:12;;;;;;;5.23;3.90;;;25.90;99.90;;;;;;5032698;28;20667;-79
2023/10/10 08:56:59;;;;;;;6.93;4.10;;;26.30;99.90;;;;;;5014829;28;20639;-79
2023/10/10 08:59:28;;;;;;;8.90;3.90;;;26.70;99.90;;;;;;5032405;28;20674;-79
2023/10/10 09:02:06;;;;;;;7.33;4.30;;;27.20;99.90;;;;;;5038301;28;20775;-76
2023/10/10 09:04:32;;;;;;;7.70;4.53;;;27.60;99.90;;;;;;5031663;28;20587;-75
2023/10/10 09:07:00;;;;;;;6.50;3.80;;;27.90;99.90;;;;;;5029969;28;21171;-75
2023/10/10 09:09:32;;;;;;;6.30;4.80;;;28.10;99.90;;;;;;5013483;28;20588;-75
2023/10/10 09:12:02;;;;;;;6.97;4.00;;;28.40;99.90;;;;;;5013420;28;20702;-75
2023/10/10 09:14:50;;;;;;;7.47;4.40;;;28.50;99.90;;;;;;5013565;28;21177;-75
2023/10/10 09:17:35;;;;;;;7.63;4.23;;;28.60;99.90;;;;;;5005856;28;20694;-75
2023/10/10 09:22:51;;;;;;;5.50;4.20;;;28.60;99.90;;;;;;5030032;28;20616;-75
2023/10/10 09:28:43;;;;;;;9.03;3.60;;;28.40;99.90;;;;;;4931042;29;20592;-75
2023/10/10 09:31:20;;;;;;;8.67;4.23;;;28.30;99.90;;;;;;5003541;28;20609;-75
2023/10/10 09:33:50;;;;;;;8.07;4.17;;;28.40;99.90;;;;;;5030834;28;20596;-75
2023/10/10 09:36:15;;;;;;;11.17;4.00;;;28.50;99.90;;;;;;5005443;28;20632;-75
2023/10/10 09:38:46;;;;;;;10.27;3.80;;;28.60;99.90;;;;;;4996421;28;20590;-75
2023/10/10 09:58:24;;;;;;;5.70;3.97;;;28.70;99.90;;;;;;4996798;28;21034;-76
2023/10/10 10:03:31;;;;;;;6.37;3.77;;;28.60;99.90;;;;;;5032426;28;20627;-76
2023/10/10 10:06:37;;;;;;;4.80;3.20;;;28.70;99.90;;;;;;4996671;28;20600;-78
2023/10/10 10:09:45;;;;;;;5.20;3.47;;;28.90;99.90;;;;;;4996125;28;20637;-76
2023/10/10 10:12:44;;;;;;;5.63;3.70;;;29.00;97.10;;;;;;5030396;28;20631;-76
2023/10/10 10:15:48;;;;;;;7.70;3.93;;;29.00;99.90;;;;;;5030614;28;21005;-76
2023/10/10 10:18:26;;;;;;;6.67;4.43;;;29.00;98.50;;;;;;5012705;28;20667;-76
2023/10/10 10:21:18;;;;;;;5.60;4.37;;;28.90;99.50;;;;;;5012845;28;20595;-76
2023/10/10 10:23:47;;;;;;;6.77;3.40;;;28.70;98.20;;;;;;5025864;28;20591;-76
2023/10/10 10:29:28;;;;;;;5.00;3.50;;;28.30;97.30;;;;;;4953150;28;20738;-76
2023/10/10 10:32:00;;;;;;;5.60;3.90;;;28.20;98.00;;;;;;5030123;28;20654;-76
2023/10/10 10:37:06;;;;;;;5.07;4.10;;;28.30;98.00;;;;;;5030561;28;20628;-77
2023/10/10 10:39:37;;;;;;;8.90;4.00;;;28.20;97.40;;;;;;5001199;28;20599;-76
2023/10/10 10:42:12;;;;;;;10.73;6.30;;;28.40;98.10;;;;;;5014496;28;20960;-76
2023/10/10 10:44:44;;;;;;;7.17;4.07;;;28.50;97.90;;;;;;5016459;28;20628;-76
2023/10/10 10:47:35;;;;;;;6.30;3.93;;;28.60;97.70;;;;;;5016270;28;20683;-76
2023/10/10 10:50:28;;;;;;;5.90;3.57;;;28.80;98.30;;;;;;5015951;28;20650;-76
2023/10/10 10:52:59;;;;;;;5.50;4.03;;;29.10;97.80;;;;;;5027597;28;21033;-77
2023/10/10 10:55:28;;;;;;;6.90;3.50;;;29.10;94.00;;;;;;5008983;28;20598;-77
2023/10/10 11:03:33;;;;;;;6.67;3.90;;;29.20;95.70;;;;;;5016766;28;20615;-76
2023/10/10 11:06:09;;;;;;;4.83;2.90;;;29.20;95.30;;;;;;5016461;28;20598;-76
2023/10/10 11:16:47;;;;;;;6.13;4.27;;;29.50;94.90;;;;;;5004220;28;20694;-76
2023/10/10 11:21:53;;;;;;;8.07;4.03;;;29.80;93.80;;;;;;5044742;28;20642;-76
2023/10/10 11:24:24;;;;;;;6.57;3.00;;;29.90;93.20;;;;;;5034325;28;20615;-76
2023/10/10 11:27:14;;;;;;;5.37;3.10;;;30.00;93.60;;;;;;4999953;28;20593;-76
2023/10/10 11:29:45;;;;;;;9.20;3.77;;;30.20;92.80;;;;;;4998859;28;20606;-76
2023/10/10 11:32:25;;;;;;;5.57;3.30;;;30.20;93.10;;;;;;5015514;28;20627;-76
2023/10/10 11:34:56;;;;;;;7.20;3.00;;;30.30;92.40;;;;;;5033841;28;20600;-78
2023/10/10 11:37:26;;;;;;;7.03;3.33;;;30.50;92.30;;;;;;5033115;28;20634;-78
2023/10/10 11:40:19;;;;;;;5.53;3.13;;;30.60;91.90;;;;;;4998714;28;20645;-78
2023/10/10 11:42:47;;;;;;;5.13;3.70;;;30.70;91.10;;;;;;5032687;28;20620;-75
2023/10/10 11:45:19;;;;;;;3.90;2.87;;;30.70;90.70;;;;;;5015138;28;20598;-75
2023/10/10 11:47:51;;;;;;;5.70;3.30;;;30.90;90.70;;;;;;5033080;28;21161;-75
2023/10/10 11:50:22;;;;;;;4.53;2.80;;;30.90;90.20;;;;;;5031007;28;20586;-77
2023/10/10 11:52:56;;;;;;;8.60;2.73;;;31.00;89.70;;;;;;5032457;28;20621;-78
2023/10/10 11:55:25;;;;;;;4.53;2.60;;;31.00;89.20;;;;;;5036453;28;20584;-77
2023/10/10 11:57:57;;;;;;;4.27;2.27;;;31.10;89.00;;;;;;4998567;28;20590;-76
2023/10/10 12:00:35;;;;;;;5.93;3.23;;;31.20;88.50;;;;;;5014656;28;20584;-76
2023/10/10 12:03:05;;;;;;;4.07;2.57;;;31.30;87.60;;;;;;4998525;28;20618;-76
2023/10/10 12:08:00;;;;;;;7.20;3.77;;;31.40;84.70;;;;;;5031524;28;20602;-76
2023/10/10 12:10:47;;;;;;;5.10;2.60;;;31.40;84.20;;;;;;5032313;28;20926;-76
2023/10/10 12:13:25;;;;;;;4.43;3.03;;;31.30;83.90;;;;;;4998185;28;20974;-76
2023/10/10 12:15:51;;;;;;;4.27;2.70;;;31.40;84.20;;;;;;5032588;28;20980;-76
2023/10/10 12:18:17;;;;;;;6.57;3.93;;;31.50;83.80;;;;;;4998043;28;20593;-76
2023/10/10 12:20:44;;;;;;;5.60;3.20;;;31.50;80.60;;;;;;5014636;28;20581;-76
2023/10/10 12:23:13;;;;;;;6.00;3.27;;;31.20;79.10;;;;;;5014586;28;20195;-76
2023/10/10 12:25:42;;;;;;;4.27;3.17;;;31.00;78.70;;;;;;5032472;28;20580;-76
2023/10/10 12:28:09;;;;;;;3.77;2.40;;;30.80;78.00;;;;;;5032131;28;20600;-76
2023/10/10 12:30:41;;;;;;;5.30;2.70;;;30.60;77.20;;;;;;5017042;28;20610;-76
2023/10/10 12:33:15;;;;;;;5.37;2.93;;;30.30;76.50;;;;;;5014663;28;20665;-76
2023/10/10 12:35:43;;;;;;;4.20;3.00;;;30.10;76.50;;;;;;5014266;28;20667;-76
2023/10/10 12:38:09;;;;;;;8.10;3.27;;;29.90;76.20;;;;;;5013941;28;20659;-76
2023/10/10 12:40:35;;;;;;;4.13;2.50;;;29.70;76.30;;;;;;5014139;28;21177;-76
2023/10/10 12:43:01;;;;;;;7.83;2.60;;;29.40;76.70;;;;;;5031809;28;20686;-76
2023/10/10 12:45:32;;;;;;;5.50;2.53;;;29.20;76.60;;;;;;5014138;28;20604;-76
2023/10/10 12:47:59;;;;;;;5.37;3.13;;;28.90;76.70;;;;;;4997909;28;20263;-76
2023/10/10 12:50:28;;;;;;;5.07;2.53;;;28.70;76.90;;;;;;5013585;28;20595;-76
2023/10/10 12:53:07;;;;;;;3.80;2.63;;;28.50;77.10;;;;;;5031504;28;20981;-76
2023/10/10 12:55:35;;;;;;;5.67;3.50;;;28.30;77.50;;;;;;5014143;28;20945;-76
2023/10/10 12:58:09;;;;;;;5.33;3.00;;;28.10;77.90;;;;;;4997586;28;20608;-76
2023/10/10 13:00:57;;;;;;;5.33;3.10;;;28.00;78.40;;;;;;5014358;28;20592;-77
2023/10/10 13:06:24;;;;;;;6.10;3.23;;;27.80;78.70;;;;;;4996462;28;20601;-76
2023/10/10 13:11:20;;;;;;;7.43;2.43;;;27.60;77.20;;;;;;5031001;28;20639;-75
2023/10/10 13:13:49;;;;;;;6.47;2.60;;;27.60;76.90;;;;;;5013280;28;20603;-75
2023/10/10 13:19:21;;;;;;;6.00;2.87;;;27.40;75.50;;;;;;4999188;28;20688;-77
2023/10/10 13:21:48;;;;;;;7.00;2.50;;;27.40;76.30;;;;;;5030873;28;20615;-75
2023/10/10 13:24:13;;;;;;;4.40;2.80;;;27.40;76.20;;;;;;5013354;28;20588;-76
2023/10/10 13:26:41;;;;;;;4.80;2.57;;;27.30;76.00;;;;;;5013347;28;20612;-76
2023/10/10 13:29:07;;;;;;;4.33;2.73;;;27.30;75.90;;;;;;5012963;28;21068;-76
2023/10/10 13:31:33;;;;;;;6.03;2.80;;;27.30;75.90;;;;;;5013093;28;20627;-76
2023/10/10 13:33:59;;;;;;;6.53;2.60;;;27.20;75.70;;;;;;5031142;28;20601;-76
2023/10/10 13:36:25;;;;;;;7.80;3.20;;;27.20;75.60;;;;;;5030365;28;20231;-77
2023/10/10 13:39:05;;;;;;;5.73;2.13;;;27.20;75.10;;;;;;5012799;28;20590;-77
2023/10/10 13:41:35;;;;;;;4.80;2.20;;;27.10;74.50;;;;;;5012780;28;20631;-78
2023/10/10 13:44:03;;;;;;;4.57;2.50;;;27.10;74.40;;;;;;5032451;28;20653;-78
2023/10/10 13:46:37;;;;;;;3.87;2.37;;;27.00;73.70;;;;;;5016434;28;20611;-78
2023/10/10 13:49:04;;;;;;;4.20;2.00;;;27.10;73.70;;;;;;4996675;28;20647;-78
2023/10/10 13:51:39;;;;;;;5.13;2.70;;;27.00;73.30;;;;;;4996563;28;21184;-78
2023/10/10 13:54:05;;;;;;;5.27;2.40;;;27.00;73.00;;;;;;5013152;28;20592;-78
2023/10/10 13:56:31;;;;;;;9.13;3.17;;;27.00;72.80;;;;;;5005670;28;20632;-78
2023/10/10 13:59:02;;;;;;;6.87;3.30;;;26.90;72.20;;;;;;5030831;28;20654;-77
2023/10/10 14:01:36;;;;;;;6.37;2.77;;;26.90;71.70;;;;;;5013149;28;20203;-78
2023/10/10 14:06:47;;;;;;;5.10;2.37;;;26.90;71.00;;;;;;5030895;28;20584;-76
2023/10/10 14:09:31;;;;;;;6.63;3.30;;;26.90;71.10;;;;;;5030304;28;20592;-76
2023/10/10 14:12:01;;;;;;;9.63;2.27;;;26.90;70.30;;;;;;5012971;28;20952;-77
2023/10/10 14:14:28;;;;;;;5.30;2.60;;;26.90;70.70;;;;;;4997230;28;20643;-77
2023/10/10 14:16:53;;;;;;;8.40;3.40;;;27.00;70.30;;;;;;5014909;28;20636;-76
2023/10/10 14:19:23;;;;;;;4.57;2.40;;;27.00;69.90;;;;;;5034802;28;20997;-78
2023/10/10 14:21:54;;;;;;;6.00;2.90;;;27.00;69.70;;;;;;5020886;28;20206;-78
2023/10/10 14:24:20;;;;;;;9.10;3.13;;;27.00;69.70;;;;;;5016932;28;20589;-77
2023/10/10 14:26:48;;;;;;;9.23;3.70;;;27.00;69.60;;;;;;5016903;28;20628;-78
2023/10/10 14:29:14;;;;;;;7.80;3.40;;;27.00;69.40;;;;;;5016295;28;20942;-78
2023/10/10 14:31:44;;;;;;;6.00;3.03;;;27.00;69.40;;;;;;5016089;28;20707;-78
2023/10/10 14:34:24;;;;;;;6.30;3.17;;;27.00;69.20;;;;;;5007142;28;20617;-76
2023/10/10 14:36:51;;;;;;;5.20;2.90;;;27.00;69.00;;;;;;5034396;28;20635;-77
2023/10/10 14:39:36;;;;;;;4.60;2.77;;;27.00;68.90;;;;;;4999669;28;20588;-78
2023/10/10 14:42:02;;;;;;;5.17;3.43;;;27.00;68.70;;;;;;5033921;28;20682;-78
2023/10/10 14:44:29;;;;;;;6.30;2.40;;;27.00;68.70;;;;;;5016314;28;20654;-77
2023/10/10 14:46:55;;;;;;;4.60;2.63;;;27.00;68.70;;;;;;5016598;28;20596;-78
2023/10/10 14:49:29;;;;;;;9.30;3.37;;;27.00;68.20;;;;;;5016093;28;20592;-78
2023/10/10 14:52:06;;;;;;;4.20;2.40;;;27.00;68.10;;;;;;5016412;28;20612;-78
2023/10/10 14:54:42;;;;;;;5.27;2.73;;;26.90;67.40;;;;;;5034088;28;20572;-78
2023/10/10 14:57:15;;;;;;;4.67;2.00;;;27.00;67.80;;;;;;5016498;28;20647;-78
2023/10/10 14:59:42;;;;;;;4.87;3.33;;;26.90;67.60;;;;;;5037524;28;20638;-77
2023/10/10 15:02:12;;;;;;;4.03;2.57;;;26.90;67.30;;;;;;5033737;28;20655;-78
2023/10/10 15:04:38;;;;;;;5.00;2.33;;;26.90;67.30;;;;;;5016599;28;20576;-78
2023/10/10 15:07:04;;;;;;;6.30;2.87;;;26.90;67.20;;;;;;5016009;28;20600;-78
2023/10/10 15:09:30;;;;;;;5.27;2.57;;;26.80;66.90;;;;;;5033339;28;20683;-78
2023/10/10 15:12:01;;;;;;;3.57;2.80;;;26.80;66.80;;;;;;5033548;28;20695;-78
2023/10/10 15:14:31;;;;;;;8.20;2.97;;;26.80;67.00;;;;;;5016087;28;20177;-78
2023/10/10 15:16:58;;;;;;;3.93;2.67;;;26.80;66.90;;;;;;5033763;28;20638;-78
2023/10/10 15:19:24;;;;;;;6.90;3.43;;;26.80;67.60;;;;;;5015722;28;20593;-78
2023/10/10 15:21:50;;;;;;;8.60;3.20;;;26.80;66.80;;;;;;4999401;28;20619;-78
2023/10/10 15:24:17;;;;;;;6.50;3.60;;;26.70;66.60;;;;;;5030490;28;20576;-78
2023/10/10 15:26:48;;;;;;;10.80;3.97;;;26.70;66.70;;;;;;5014149;28;20217;-79
2023/10/10 15:29:16;;;;;;;7.23;4.20;;;26.60;66.70;;;;;;5014457;28;20611;-79
2023/10/10 15:31:41;;;;;;;7.10;4.20;;;26.60;66.70;;;;;;5032933;28;20620;-79
2023/10/10 15:34:12;;;;;;;5.63;3.57;;;26.50;66.80;;;;;;5034555;28;20680;-79
2023/10/10 15:36:38;;;;;;;6.33;3.47;;;26.50;66.70;;;;;;5023419;28;20251;-80
2023/10/10 15:39:07;;;;;;;8.20;3.07;;;26.50;66.90;;;;;;4999076;28;20642;-79
2023/10/10 15:41:37;;;;;;;4.63;2.80;;;26.40;66.80;;;;;;5015370;28;20584;-79
2023/10/10 15:44:03;;;;;;;6.83;3.10;;;26.40;67.70;;;;;;5016041;28;20619;-79
2023/10/10 15:46:35;;;;;;;6.37;2.47;;;26.40;67.20;;;;;;4998021;28;20613;-79
2023/10/10 15:49:03;;;;;;;4.47;2.80;;;26.30;67.10;;;;;;5034054;28;20596;-79
2023/10/10 15:51:34;;;;;;;5.50;2.87;;;26.30;67.30;;;;;;5016023;28;20671;-79
2023/10/10 15:54:02;;;;;;;7.53;3.33;;;26.20;67.20;;;;;;5031392;28;21411;-79
2023/10/10 15:56:28;;;;;;;9.93;4.40;;;26.10;67.30;;;;;;5015672;28;20638;-79
2023/10/10 15:58:55;;;;;;;8.23;4.10;;;26.10;67.50;;;;;;5014758;28;20588;-78
2023/10/10 16:01:24;;;;;;;9.53;7.07;;;26.10;67.70;;;;;;5032792;28;20599;-78
2023/10/10 16:03:53;;;;;;;10.57;7.67;;;26.00;67.90;;;;;;5015021;28;20595;-78
2023/10/10 16:06:22;;;;;;;7.47;4.70;;;25.90;67.90;;;;;;5015140;28;20639;-79
2023/10/10 16:08:51;;;;;;;12.83;4.57;;;25.90;67.90;;;;;;5014575;28;20588;-79
2023/10/10 16:11:21;;;;;;;8.13;3.90;;;25.80;68.00;;;;;;5015946;28;20588;-79
2023/10/10 16:13:48;;;;;;;5.37;3.27;;;25.80;68.90;;;;;;5017487;28;20656;-78
2023/10/10 16:16:17;;;;;;;5.80;3.03;;;25.70;68.30;;;;;;5032591;28;20762;-78
2023/10/10 16:18:45;;;;;;;5.83;3.87;;;25.70;68.40;;;;;;5007256;28;20576;-78
2023/10/10 16:21:14;;;;;;;7.00;4.47;;;25.60;68.40;;;;;;5014521;28;20603;-78
2023/10/10 16:23:43;;;;;;;8.20;4.57;;;25.50;68.40;;;;;;5013784;28;20612;-78
2023/10/10 16:26:14;;;;;;;7.23;4.33;;;25.50;68.40;;;;;;5027869;28;20616;-78
2023/10/10 16:28:44;;;;;;;11.43;4.50;;;25.40;69.20;;;;;;5005995;28;20580;-79
2023/10/10 16:31:15;;;;;;;8.47;5.23;;;25.30;68.50;;;;;;5014569;28;21228;-79